sensor_id;sensor_type;location;lat;lon;timestamp;pressure;altitude;pressure_sealevel;temperature;humidity
10940;BME280;5522;42.696;23.494;2023-04-28T00:01:51;53711.09;;;-139.68;100.00
10940;BME280;5522;42.696;23.494;2023-04-28T00:04:18;53693.00;;;-139.68;100.00
10940;BME280;5522;42.696;23.494;2023-04-28T00:06:45;53737.22;;;-139.68;100.00
10940;BME280;5522;42.696;23.494;2023-04-28T00:09:14;53703.03;;;-139.68;100.00
10940;BME280;5522;42.696;23.494;2023-04-28T00:11:43;53686.97;;;-139.68;100.00
10940;BME280;5522;42.696;23.494;2023-04-28T00:14:10;53688.97;;;-139.68;100.00
10940;BME280;5522;42.696;23.494;2023-04-28T00:16:37;53707.06;;;-139.68;100.00
10940;BME280;5522;42.696;23.494;2023-04-28T00:19:04;53711.09;;;-139.68;100.00
10940;BME280;5522;42.696;23.494;2023-04-28T00:21:30;53697.00;;;-139.68;100.00
10940;BME280;5522;42.696;23.494;2023-04-28T00:23:58;53699.03;;;-139.68;100.00
10940;BME280;5522;42.696;23.494;2023-04-28T00:26:26;53721.13;;;-139.68;100.00
10940;BME280;5522;42.696;23.494;2023-04-28T00:28:53;53703.03;;;-139.68;100.00
10940;BME280;5522;42.696;23.494;2023-04-28T00:31:20;53680.94;;;-139.68;100.00
10940;BME280;5522;42.696;23.494;2023-04-28T00:33:46;53666.84;;;-139.68;100.00
10940;BME280;5522;42.696;23.494;2023-04-28T00:36:13;53693.00;;;-139.68;100.00
10940;BME280;5522;42.696;23.494;2023-04-28T00:38:40;53693.00;;;-139.68;100.00
10940;BME280;5522;42.696;23.494;2023-04-28T00:41:08;53690.97;;;-139.68;100.00
10940;BME280;5522;42.696;23.494;2023-04-28T00:43:44;53662.84;;;-139.68;100.00
10940;BME280;5522;42.696;23.494;2023-04-28T00:46:19;53674.91;;;-139.68;100.00
10940;BME280;5522;42.696;23.494;2023-04-28T00:48:46;53699.03;;;-139.68;100.00
10940;BME280;5522;42.696;23.494;2023-04-28T00:51:14;53695.00;;;-139.68;100.00
10940;BME280;5522;42.696;23.494;2023-04-28T00:53:41;53676.91;;;-139.68;100.00
10940;BME280;5522;42.696;23.494;2023-04-28T00:56:09;53682.94;;;-139.68;100.00
10940;BME280;5522;42.696;23.494;2023-04-28T00:58:36;53658.81;;;-139.68;100.00
10940;BME280;5522;42.696;23.494;2023-04-28T01:06:15;53660.81;;;-139.68;100.00
10940;BME280;5522;42.696;23.494;2023-04-28T01:08:47;53678.91;;;-139.68;100.00
10940;BME280;5522;42.696;23.494;2023-04-28T01:11:14;53670.88;;;-139.68;100.00
10940;BME280;5522;42.696;23.494;2023-04-28T01:13:41;53686.97;;;-139.68;100.00
10940;BME280;5522;42.696;23.494;2023-04-28T01:16:08;53666.84;;;-139.68;100.00
10940;BME280;5522;42.696;23.494;2023-04-28T01:18:35;53670.88;;;-139.68;100.00
10940;BME280;5522;42.696;23.494;2023-04-28T01:21:02;53672.88;;;-139.68;100.00
10940;BME280;5522;42.696;23.494;2023-04-28T01:23:31;53664.84;;;-139.68;100.00
10940;BME280;5522;42.696;23.494;2023-04-28T01:25:59;53646.75;;;-139.68;100.00
10940;BME280;5522;42.696;23.494;2023-04-28T01:28:26;53701.03;;;-139.68;100.00
10940;BME280;5522;42.696;23.494;2023-04-28T01:30:53;53684.94;;;-139.68;100.00
10940;BME280;5522;42.696;23.494;2023-04-28T01:33:20;53693.00;;;-139.68;100.00
10940;BME280;5522;42.696;23.494;2023-04-28T01:35:47;53650.78;;;-139.68;100.00
10940;BME280;5522;42.696;23.494;2023-04-28T01:38:14;53646.75;;;-139.68;100.00
10940;BME280;5522;42.696;23.494;2023-04-28T01:40:41;53674.91;;;-139.68;100.00
10940;BME280;5522;42.696;23.494;2023-04-28T01:43:09;53676.91;;;-139.68;100.00
10940;BME280;5522;42.696;23.494;2023-04-28T01:45:36;53713.09;;;-139.68;100.00
10940;BME280;5522;42.696;23.494;2023-04-28T01:48:03;53652.78;;;-139.68;100.00
10940;BME280;5522;42.696;23.494;2023-04-28T01:50:30;53676.91;;;-139.68;100.00
10940;BME280;5522;42.696;23.494;2023-04-28T01:52:56;53674.91;;;-139.68;100.00
10940;BME280;5522;42.696;23.494;2023-04-28T01:55:23;53707.06;;;-139.68;100.00
10940;BME280;5522;42.696;23.494;2023-04-28T01:57:50;53682.94;;;-139.68;100.00
10940;BME280;5522;42.696;23.494;2023-04-28T02:00:19;53650.78;;;-139.68;100.00
10940;BME280;5522;42.696;23.494;2023-04-28T02:02:46;53622.63;;;-139.68;100.00
10940;BME280;5522;42.696;23.494;2023-04-28T02:05:12;53699.03;;;-139.68;100.00
10940;BME280;5522;42.696;23.494;2023-04-28T02:07:39;53695.00;;;-139.68;100.00
10940;BME280;5522;42.696;23.494;2023-04-28T02:10:07;53660.81;;;-139.68;100.00
10940;BME280;5522;42.696;23.494;2023-04-28T02:12:34;53656.81;;;-139.68;100.00
10940;BME280;5522;42.696;23.494;2023-04-28T02:15:01;53660.81;;;-139.68;100.00
10940;BME280;5522;42.696;23.494;2023-04-28T02:17:30;53682.94;;;-139.68;100.00
10940;BME280;5522;42.696;23.494;2023-04-28T02:19:57;53666.84;;;-139.68;100.00
10940;BME280;5522;42.696;23.494;2023-04-28T02:22:24;53672.88;;;-139.68;100.00
10940;BME280;5522;42.696;23.494;2023-04-28T02:24:51;53646.75;;;-139.68;100.00
10940;BME280;5522;42.696;23.494;2023-04-28T02:27:18;53707.06;;;-139.68;100.00
10940;BME280;5522;42.696;23.494;2023-04-28T02:29:45;53618.63;;;-139.68;100.00
10940;BME280;5522;42.696;23.494;2023-04-28T02:32:12;53666.84;;;-139.68;100.00
10940;BME280;5522;42.696;23.494;2023-04-28T02:34:40;53654.78;;;-139.68;100.00
10940;BME280;5522;42.696;23.494;2023-04-28T02:37:06;53622.63;;;-139.68;100.00
10940;BME280;5522;42.696;23.494;2023-04-28T02:39:33;53664.84;;;-139.68;100.00
10940;BME280;5522;42.696;23.494;2023-04-28T02:42:00;53658.81;;;-139.68;100.00
10940;BME280;5522;42.696;23.494;2023-04-28T02:44:30;53654.78;;;-139.68;100.00
10940;BME280;5522;42.696;23.494;2023-04-28T02:46:56;53644.75;;;-139.68;100.00
10940;BME280;5522;42.696;23.494;2023-04-28T02:49:23;53680.94;;;-139.68;100.00
10940;BME280;5522;42.696;23.494;2023-04-28T02:51:51;53666.84;;;-139.68;100.00
10940;BME280;5522;42.696;23.494;2023-04-28T02:54:18;53674.91;;;-139.68;100.00
10940;BME280;5522;42.696;23.494;2023-04-28T02:56:52;53682.94;;;-139.68;100.00
10940;BME280;5522;42.696;23.494;2023-04-28T02:59:19;53646.75;;;-139.68;100.00
10940;BME280;5522;42.696;23.494;2023-04-28T03:01:46;53678.91;;;-139.68;100.00
10940;BME280;5522;42.696;23.494;2023-04-28T03:04:13;53666.84;;;-139.68;100.00
10940;BME280;5522;42.696;23.494;2023-04-28T03:06:40;53638.72;;;-139.68;100.00
10940;BME280;5522;42.696;23.494;2023-04-28T03:09:09;53654.78;;;-139.68;100.00
10940;BME280;5522;42.696;23.494;2023-04-28T03:11:37;53682.94;;;-139.68;100.00
10940;BME280;5522;42.696;23.494;2023-04-28T03:14:03;53658.81;;;-139.68;100.00
10940;BME280;5522;42.696;23.494;2023-04-28T03:16:30;53634.69;;;-139.68;100.00
10940;BME280;5522;42.696;23.494;2023-04-28T03:18:57;53680.94;;;-139.68;100.00
10940;BME280;5522;42.696;23.494;2023-04-28T03:21:24;53650.78;;;-139.68;100.00
10940;BME280;5522;42.696;23.494;2023-04-28T03:23:52;53664.84;;;-139.68;100.00
10940;BME280;5522;42.696;23.494;2023-04-28T03:26:20;53650.78;;;-139.68;100.00
10940;BME280;5522;42.696;23.494;2023-04-28T03:28:47;53656.81;;;-139.68;100.00
10940;BME280;5522;42.696;23.494;2023-04-28T03:31:13;53646.75;;;-139.68;100.00
10940;BME280;5522;42.696;23.494;2023-04-28T03:33:40;53638.72;;;-139.68;100.00
10940;BME280;5522;42.696;23.494;2023-04-28T03:36:09;53674.91;;;-139.68;100.00
10940;BME280;5522;42.696;23.494;2023-04-28T03:38:36;53652.78;;;-139.68;100.00
10940;BME280;5522;42.696;23.494;2023-04-28T03:41:03;53707.06;;;-139.68;100.00
10940;BME280;5522;42.696;23.494;2023-04-28T03:43:31;53642.72;;;-139.68;100.00
10940;BME280;5522;42.696;23.494;2023-04-28T03:45:59;53678.91;;;-139.68;100.00
10940;BME280;5522;42.696;23.494;2023-04-28T03:48:26;53693.00;;;-139.68;100.00
10940;BME280;5522;42.696;23.494;2023-04-28T03:50:53;53606.56;;;-139.68;100.00
10940;BME280;5522;42.696;23.494;2023-04-28T03:53:20;53652.78;;;-139.68;100.00
10940;BME280;5522;42.696;23.494;2023-04-28T03:55:47;53642.72;;;-139.68;100.00
10940;BME280;5522;42.696;23.494;2023-04-28T03:58:14;53680.94;;;-139.68;100.00
10940;BME280;5522;42.696;23.494;2023-04-28T04:00:42;53678.91;;;-139.68;100.00
10940;BME280;5522;42.696;23.494;2023-04-28T04:03:09;53672.88;;;-139.68;100.00
10940;BME280;5522;42.696;23.494;2023-04-28T04:05:38;53672.88;;;-139.68;100.00
10940;BME280;5522;42.696;23.494;2023-04-28T04:08:05;53719.13;;;-139.68;100.00
10940;BME280;5522;42.696;23.494;2023-04-28T04:10:32;53713.09;;;-139.68;100.00
10940;BME280;5522;42.696;23.494;2023-04-28T04:12:59;53680.94;;;-139.68;100.00
10940;BME280;5522;42.696;23.494;2023-04-28T04:15:26;53699.03;;;-139.68;94.91
10940;BME280;5522;42.696;23.494;2023-04-28T04:17:54;53705.06;;;-139.68;77.11
10940;BME280;5522;42.696;23.494;2023-04-28T04:20:21;53723.13;;;-139.68;55.76
10940;BME280;5522;42.696;23.494;2023-04-28T04:22:48;53719.13;;;-139.68;47.83
10940;BME280;5522;42.696;23.494;2023-04-28T04:25:14;53785.47;;;-139.68;41.91
10940;BME280;5522;42.696;23.494;2023-04-28T04:27:41;53715.09;;;-139.68;41.30
10940;BME280;5522;42.696;23.494;2023-04-28T04:30:09;53739.22;;;-139.68;39.17
10940;BME280;5522;42.696;23.494;2023-04-28T04:32:36;53791.50;;;-139.68;37.46
10940;BME280;5522;42.696;23.494;2023-04-28T04:35:04;53765.34;;;-139.68;35.73
10940;BME280;5522;42.696;23.494;2023-04-28T04:37:32;53791.50;;;-139.68;35.82
10940;BME280;5522;42.696;23.494;2023-04-28T04:39:59;53759.31;;;-139.68;35.74
10940;BME280;5522;42.696;23.494;2023-04-28T04:42:26;53751.28;;;-139.68;35.61
10940;BME280;5522;42.696;23.494;2023-04-28T04:44:53;53795.50;;;-139.68;36.05
10940;BME280;5522;42.696;23.494;2023-04-28T04:47:20;53767.38;;;-139.68;36.19
10940;BME280;5522;42.696;23.494;2023-04-28T04:49:47;53777.41;;;-139.68;35.47
10940;BME280;5522;42.696;23.494;2023-04-28T04:52:15;53773.41;;;-139.68;35.04
10940;BME280;5522;42.696;23.494;2023-04-28T04:54:42;53767.38;;;-139.68;34.53
10940;BME280;5522;42.696;23.494;2023-04-28T04:57:09;53743.25;;;-139.68;35.79
10940;BME280;5522;42.696;23.494;2023-04-28T04:59:36;53751.28;;;-139.68;36.11
10940;BME280;5522;42.696;23.494;2023-04-28T05:02:03;53741.22;;;-139.68;36.32
10940;BME280;5522;42.696;23.494;2023-04-28T05:04:30;53757.31;;;-139.68;36.31
10940;BME280;5522;42.696;23.494;2023-04-28T05:06:57;53767.38;;;-139.68;34.05
10940;BME280;5522;42.696;23.494;2023-04-28T05:09:25;53811.59;;;-139.68;32.40
10940;BME280;5522;42.696;23.494;2023-04-28T05:11:52;53807.56;;;-139.68;32.19
10940;BME280;5522;42.696;23.494;2023-04-28T05:14:19;53791.50;;;-139.68;31.89
10940;BME280;5522;42.696;23.494;2023-04-28T05:16:45;53773.41;;;-139.68;31.25
10940;BME280;5522;42.696;23.494;2023-04-28T05:19:12;53785.47;;;-139.68;31.67
10940;BME280;5522;42.696;23.494;2023-04-28T05:21:39;53789.47;;;-139.68;31.21
10940;BME280;5522;42.696;23.494;2023-04-28T05:24:06;53807.56;;;-139.68;30.73
10940;BME280;5522;42.696;23.494;2023-04-28T05:26:34;53777.41;;;-139.68;29.95
10940;BME280;5522;42.696;23.494;2023-04-28T05:29:01;53805.56;;;-139.68;29.36
10940;BME280;5522;42.696;23.494;2023-04-28T05:31:28;53819.63;;;-139.68;29.04
10940;BME280;5522;42.696;23.494;2023-04-28T05:33:55;53815.63;;;-139.68;29.92
10940;BME280;5522;42.696;23.494;2023-04-28T05:36:23;53791.50;;;-139.68;29.76
10940;BME280;5522;42.696;23.494;2023-04-28T05:38:50;53829.69;;;-139.68;29.71
10940;BME280;5522;42.696;23.494;2023-04-28T05:41:16;53799.53;;;-139.68;28.70
10940;BME280;5522;42.696;23.494;2023-04-28T05:43:45;53799.53;;;-139.68;28.42
10940;BME280;5522;42.696;23.494;2023-04-28T05:46:14;53791.50;;;-139.68;28.14
10940;BME280;5522;42.696;23.494;2023-04-28T05:48:41;53807.56;;;-139.68;28.58
10940;BME280;5522;42.696;23.494;2023-04-28T05:51:11;53823.66;;;-139.68;28.66
10940;BME280;5522;42.696;23.494;2023-04-28T05:53:38;53787.47;;;-139.68;28.75
10940;BME280;5522;42.696;23.494;2023-04-28T05:56:06;53829.69;;;-139.68;27.99
10940;BME280;5522;42.696;23.494;2023-04-28T05:58:33;53813.59;;;-139.68;27.38
10940;BME280;5522;42.696;23.494;2023-04-28T06:01:02;53851.81;;;-139.68;27.22
10940;BME280;5522;42.696;23.494;2023-04-28T06:03:28;53829.69;;;-139.68;26.16
10940;BME280;5522;42.696;23.494;2023-04-28T06:05:55;53843.75;;;-139.68;26.17
10940;BME280;5522;42.696;23.494;2023-04-28T06:08:22;53831.69;;;-139.68;25.26
10940;BME280;5522;42.696;23.494;2023-04-28T06:10:49;53833.72;;;-139.68;25.83
10940;BME280;5522;42.696;23.494;2023-04-28T06:13:16;53847.78;;;-139.68;24.87
10940;BME280;5522;42.696;23.494;2023-04-28T06:15:43;53863.88;;;-139.68;25.94
10940;BME280;5522;42.696;23.494;2023-04-28T06:18:11;53825.66;;;-139.68;25.68
10940;BME280;5522;42.696;23.494;2023-04-28T06:20:40;53837.72;;;-139.68;24.63
10940;BME280;5522;42.696;23.494;2023-04-28T06:23:07;53827.69;;;-139.68;24.97
10940;BME280;5522;42.696;23.494;2023-04-28T06:25:34;53823.66;;;-139.68;25.17
10940;BME280;5522;42.696;23.494;2023-04-28T06:28:01;53843.75;;;-139.68;25.11
10940;BME280;5522;42.696;23.494;2023-04-28T06:30:28;53877.94;;;-139.68;24.24
10940;BME280;5522;42.696;23.494;2023-04-28T06:32:55;53843.75;;;-139.68;25.35
10940;BME280;5522;42.696;23.494;2023-04-28T06:35:24;53839.75;;;-139.68;24.80
10940;BME280;5522;42.696;23.494;2023-04-28T06:37:51;53831.69;;;-139.68;24.82
10940;BME280;5522;42.696;23.494;2023-04-28T06:40:18;53835.72;;;-139.68;26.26
10940;BME280;5522;42.696;23.494;2023-04-28T06:42:45;53837.72;;;-139.68;24.95
10940;BME280;5522;42.696;23.494;2023-04-28T06:45:12;53867.88;;;-139.68;24.52
10940;BME280;5522;42.696;23.494;2023-04-28T06:47:38;53839.75;;;-139.68;25.36
10940;BME280;5522;42.696;23.494;2023-04-28T06:50:06;53859.84;;;-139.68;26.66
10940;BME280;5522;42.696;23.494;2023-04-28T06:52:34;53819.63;;;-139.68;25.58
10940;BME280;5522;42.696;23.494;2023-04-28T06:55:03;53837.72;;;-139.68;25.97
10940;BME280;5522;42.696;23.494;2023-04-28T06:57:30;53823.66;;;-139.68;25.04
10940;BME280;5522;42.696;23.494;2023-04-28T06:59:57;53851.81;;;-139.68;25.26
10940;BME280;5522;42.696;23.494;2023-04-28T07:02:24;53841.75;;;-139.68;25.33
10940;BME280;5522;42.696;23.494;2023-04-28T07:04:51;53863.88;;;-139.68;25.61
10940;BME280;5522;42.696;23.494;2023-04-28T07:07:18;53831.69;;;-139.68;24.89
10940;BME280;5522;42.696;23.494;2023-04-28T07:09:46;53819.63;;;-139.68;25.34
10940;BME280;5522;42.696;23.494;2023-04-28T07:12:13;53851.81;;;-139.68;24.93
10940;BME280;5522;42.696;23.494;2023-04-28T07:14:40;53851.81;;;-139.68;24.37
10940;BME280;5522;42.696;23.494;2023-04-28T07:17:06;53861.84;;;-139.68;25.13
10940;BME280;5522;42.696;23.494;2023-04-28T07:19:33;53871.91;;;-139.68;25.56
10940;BME280;5522;42.696;23.494;2023-04-28T07:22:00;53857.84;;;-139.68;25.70
10940;BME280;5522;42.696;23.494;2023-04-28T07:24:27;53871.91;;;-139.68;24.96
10940;BME280;5522;42.696;23.494;2023-04-28T07:26:56;53871.91;;;-139.68;24.59
10940;BME280;5522;42.696;23.494;2023-04-28T07:29:23;53885.97;;;-139.68;25.16
10940;BME280;5522;42.696;23.494;2023-04-28T07:31:53;53847.78;;;-139.68;24.53
10940;BME280;5522;42.696;23.494;2023-04-28T07:34:20;53875.94;;;-139.68;23.78
10940;BME280;5522;42.696;23.494;2023-04-28T07:36:46;53823.66;;;-139.68;25.04
10940;BME280;5522;42.696;23.494;2023-04-28T07:39:13;53855.81;;;-139.68;24.13
10940;BME280;5522;42.696;23.494;2023-04-28T07:41:40;53867.88;;;-139.68;23.92
10940;BME280;5522;42.696;23.494;2023-04-28T07:44:09;53859.84;;;-139.68;23.99
10940;BME280;5522;42.696;23.494;2023-04-28T07:46:36;53873.91;;;-139.68;24.61
10940;BME280;5522;42.696;23.494;2023-04-28T07:49:03;53875.94;;;-139.68;24.19
10940;BME280;5522;42.696;23.494;2023-04-28T07:51:30;53879.94;;;-139.68;24.43
10940;BME280;5522;42.696;23.494;2023-04-28T07:53:57;53869.91;;;-139.68;23.95
10940;BME280;5522;42.696;23.494;2023-04-28T07:56:24;53863.88;;;-139.68;24.04
10940;BME280;5522;42.696;23.494;2023-04-28T07:58:51;53863.88;;;-139.68;23.81
10940;BME280;5522;42.696;23.494;2023-04-28T08:01:20;53863.88;;;-139.68;23.88
10940;BME280;5522;42.696;23.494;2023-04-28T08:03:47;53849.78;;;-139.68;23.18
10940;BME280;5522;42.696;23.494;2023-04-28T08:06:13;53896.03;;;-139.68;23.88
10940;BME280;5522;42.696;23.494;2023-04-28T08:08:40;53883.97;;;-139.68;23.54
10940;BME280;5522;42.696;23.494;2023-04-28T08:11:07;53855.81;;;-139.68;23.38
10940;BME280;5522;42.696;23.494;2023-04-28T08:13:34;53908.09;;;-139.68;23.37
10940;BME280;5522;42.696;23.494;2023-04-28T08:16:01;53855.81;;;-139.68;23.70
10940;BME280;5522;42.696;23.494;2023-04-28T08:18:29;53885.97;;;-139.68;23.46
10940;BME280;5522;42.696;23.494;2023-04-28T08:20:56;53807.56;;;-139.68;23.93
10940;BME280;5522;42.696;23.494;2023-04-28T08:23:22;53867.88;;;-139.68;23.19
10940;BME280;5522;42.696;23.494;2023-04-28T08:25:52;53863.88;;;-139.68;24.00
10940;BME280;5522;42.696;23.494;2023-04-28T08:28:19;53857.84;;;-139.68;23.87
10940;BME280;5522;42.696;23.494;2023-04-28T08:30:46;53873.91;;;-139.68;22.89
10940;BME280;5522;42.696;23.494;2023-04-28T08:33:12;53859.84;;;-139.68;24.40
10940;BME280;5522;42.696;23.494;2023-04-28T08:35:41;53898.03;;;-139.68;24.85
10940;BME280;5522;42.696;23.494;2023-04-28T08:38:07;53841.75;;;-139.68;24.44
10940;BME280;5522;42.696;23.494;2023-04-28T08:40:38;53845.78;;;-139.68;24.40
10940;BME280;5522;42.696;23.494;2023-04-28T08:43:05;53823.66;;;-139.68;24.85
10940;BME280;5522;42.696;23.494;2023-04-28T08:45:39;53865.88;;;-139.68;24.23
10940;BME280;5522;42.696;23.494;2023-04-28T08:48:13;53875.94;;;-139.68;23.01
10940;BME280;5522;42.696;23.494;2023-04-28T08:50:48;53851.81;;;-139.68;22.04
10940;BME280;5522;42.696;23.494;2023-04-28T08:53:21;53831.69;;;-139.68;22.38
10940;BME280;5522;42.696;23.494;2023-04-28T08:55:51;53871.91;;;-139.68;23.49
10940;BME280;5522;42.696;23.494;2023-04-28T08:58:21;53867.88;;;-139.68;23.22
10940;BME280;5522;42.696;23.494;2023-04-28T09:00:49;53888.00;;;-139.68;23.54
10940;BME280;5522;42.696;23.494;2023-04-28T09:03:16;53875.94;;;-139.68;23.17
10940;BME280;5522;42.696;23.494;2023-04-28T09:05:44;53865.88;;;-139.68;23.62
10940;BME280;5522;42.696;23.494;2023-04-28T09:08:12;53843.75;;;-139.68;23.68
10940;BME280;5522;42.696;23.494;2023-04-28T09:10:39;53867.88;;;-139.68;24.58
10940;BME280;5522;42.696;23.494;2023-04-28T09:13:06;53875.94;;;-139.68;24.01
10940;BME280;5522;42.696;23.494;2023-04-28T09:15:34;53871.91;;;-139.68;23.13
10940;BME280;5522;42.696;23.494;2023-04-28T09:18:03;53875.94;;;-139.68;22.96
10940;BME280;5522;42.696;23.494;2023-04-28T09:20:31;53857.84;;;-139.68;23.28
10940;BME280;5522;42.696;23.494;2023-04-28T09:23:15;53835.72;;;-139.68;23.08
10940;BME280;5522;42.696;23.494;2023-04-28T09:25:59;53890.00;;;-139.68;23.01
10940;BME280;5522;42.696;23.494;2023-04-28T09:28:26;53888.00;;;-139.68;22.57
10940;BME280;5522;42.696;23.494;2023-04-28T09:30:53;53885.97;;;-139.68;22.54
10940;BME280;5522;42.696;23.494;2023-04-28T09:33:20;53851.81;;;-139.68;22.92
10940;BME280;5522;42.696;23.494;2023-04-28T09:35:47;53883.97;;;-139.68;22.14
10940;BME280;5522;42.696;23.494;2023-04-28T09:38:17;53867.88;;;-139.68;22.32
10940;BME280;5522;42.696;23.494;2023-04-28T09:40:52;53869.91;;;-139.68;21.07
10940;BME280;5522;42.696;23.494;2023-04-28T09:43:24;53863.88;;;-139.68;21.83
10940;BME280;5522;42.696;23.494;2023-04-28T09:45:51;53845.78;;;-139.68;22.15
10940;BME280;5522;42.696;23.494;2023-04-28T09:48:26;53827.69;;;-139.68;21.08
10940;BME280;5522;42.696;23.494;2023-04-28T09:50:54;53833.72;;;-139.68;22.44
10940;BME280;5522;42.696;23.494;2023-04-28T09:53:23;53853.81;;;-139.68;22.06
10940;BME280;5522;42.696;23.494;2023-04-28T09:55:51;53867.88;;;-139.68;22.27
10940;BME280;5522;42.696;23.494;2023-04-28T09:58:19;53883.97;;;-139.68;21.87
10940;BME280;5522;42.696;23.494;2023-04-28T10:00:51;53849.78;;;-139.68;22.51
10940;BME280;5522;42.696;23.494;2023-04-28T10:03:20;53877.94;;;-139.68;22.50
10940;BME280;5522;42.696;23.494;2023-04-28T10:05:48;53883.97;;;-139.68;23.81
10940;BME280;5522;42.696;23.494;2023-04-28T10:08:17;53861.84;;;-139.68;22.62
10940;BME280;5522;42.696;23.494;2023-04-28T10:10:46;53843.75;;;-139.68;24.72
10940;BME280;5522;42.696;23.494;2023-04-28T10:13:15;53871.91;;;-139.68;25.95
10940;BME280;5522;42.696;23.494;2023-04-28T10:15:42;53843.75;;;-139.68;27.07
10940;BME280;5522;42.696;23.494;2023-04-28T10:18:11;53851.81;;;-139.68;27.70
10940;BME280;5522;42.696;23.494;2023-04-28T10:20:38;53910.09;;;-139.68;28.58
10940;BME280;5522;42.696;23.494;2023-04-28T10:23:22;53877.94;;;-139.68;27.75
10940;BME280;5522;42.696;23.494;2023-04-28T10:25:55;53898.03;;;-139.68;29.71
10940;BME280;5522;42.696;23.494;2023-04-28T10:28:24;53861.84;;;-139.68;28.42
10940;BME280;5522;42.696;23.494;2023-04-28T10:31:10;53849.78;;;-139.68;29.17
10940;BME280;5522;42.696;23.494;2023-04-28T10:33:37;53885.97;;;-139.68;27.22
10940;BME280;5522;42.696;23.494;2023-04-28T10:36:05;53898.03;;;-139.68;27.55
10940;BME280;5522;42.696;23.494;2023-04-28T10:38:33;53871.91;;;-139.68;29.97
10940;BME280;5522;42.696;23.494;2023-04-28T10:41:01;53863.88;;;-139.68;29.97
10940;BME280;5522;42.696;23.494;2023-04-28T10:43:33;53823.66;;;-139.68;29.46
10940;BME280;5522;42.696;23.494;2023-04-28T10:46:03;53851.81;;;-139.68;29.31
10940;BME280;5522;42.696;23.494;2023-04-28T10:49:03;53851.81;;;-139.68;29.07
10940;BME280;5522;42.696;23.494;2023-04-28T10:51:34;53857.84;;;-139.68;29.30
10940;BME280;5522;42.696;23.494;2023-04-28T10:54:17;53825.66;;;-139.68;28.42
10940;BME280;5522;42.696;23.494;2023-04-28T10:57:19;53863.88;;;-139.68;28.59
10940;BME280;5522;42.696;23.494;2023-04-28T10:59:49;53883.97;;;-139.68;28.68
10940;BME280;5522;42.696;23.494;2023-04-28T11:02:38;53873.91;;;-139.68;28.82
10940;BME280;5522;42.696;23.494;2023-04-28T11:05:13;53849.78;;;-139.68;29.53
10940;BME280;5522;42.696;23.494;2023-04-28T11:07:40;53843.75;;;-139.68;28.37
10940;BME280;5522;42.696;23.494;2023-04-28T11:13:28;53857.84;;;-139.68;28.45
10940;BME280;5522;42.696;23.494;2023-04-28T11:16:01;53865.88;;;-139.68;28.49
10940;BME280;5522;42.696;23.494;2023-04-28T11:18:29;53861.84;;;-139.68;28.99
10940;BME280;5522;42.696;23.494;2023-04-28T11:20:57;53827.69;;;-139.68;29.73
10940;BME280;5522;42.696;23.494;2023-04-28T11:23:27;53867.88;;;-139.68;28.41
10940;BME280;5522;42.696;23.494;2023-04-28T11:25:54;53843.75;;;-139.68;27.58
10940;BME280;5522;42.696;23.494;2023-04-28T11:28:21;53855.81;;;-139.68;29.58
10940;BME280;5522;42.696;23.494;2023-04-28T11:30:49;53873.91;;;-139.68;29.53
10940;BME280;5522;42.696;23.494;2023-04-28T11:33:16;53879.94;;;-139.68;29.76
10940;BME280;5522;42.696;23.494;2023-04-28T11:35:43;53815.63;;;-139.68;29.90
10940;BME280;5522;42.696;23.494;2023-04-28T11:38:10;53823.66;;;-139.68;28.34
10940;BME280;5522;42.696;23.494;2023-04-28T11:40:37;53841.75;;;-139.68;26.43
10940;BME280;5522;42.696;23.494;2023-04-28T11:43:04;53857.84;;;-139.68;27.34
10940;BME280;5522;42.696;23.494;2023-04-28T11:45:31;53867.88;;;-139.68;27.94
10940;BME280;5522;42.696;23.494;2023-04-28T11:47:59;53851.81;;;-139.68;28.83
10940;BME280;5522;42.696;23.494;2023-04-28T11:50:36;53851.81;;;-139.68;29.36
10940;BME280;5522;42.696;23.494;2023-04-28T11:53:03;53839.75;;;-139.68;29.52
10940;BME280;5522;42.696;23.494;2023-04-28T11:55:30;53849.78;;;-139.68;27.08
10940;BME280;5522;42.696;23.494;2023-04-28T11:58:17;53821.66;;;-139.68;28.57
10940;BME280;5522;42.696;23.494;2023-04-28T12:01:07;53849.78;;;-139.68;28.42
10940;BME280;5522;42.696;23.494;2023-04-28T12:03:42;53841.75;;;-139.68;27.10
10940;BME280;5522;42.696;23.494;2023-04-28T12:06:09;53883.97;;;-139.68;28.97
10940;BME280;5522;42.696;23.494;2023-04-28T12:08:36;53865.88;;;-139.68;28.64
10940;BME280;5522;42.696;23.494;2023-04-28T12:11:06;53845.78;;;-139.68;28.49
10940;BME280;5522;42.696;23.494;2023-04-28T12:13:34;53839.75;;;-139.68;30.61
10940;BME280;5522;42.696;23.494;2023-04-28T12:16:02;53835.72;;;-139.68;30.93
10940;BME280;5522;42.696;23.494;2023-04-28T12:18:30;53827.69;;;-139.68;30.78
10940;BME280;5522;42.696;23.494;2023-04-28T12:20:58;53875.94;;;-139.68;30.72
10940;BME280;5522;42.696;23.494;2023-04-28T12:23:29;53869.91;;;-139.68;29.08
10940;BME280;5522;42.696;23.494;2023-04-28T12:25:56;53857.84;;;-139.68;29.30
10940;BME280;5522;42.696;23.494;2023-04-28T12:28:34;53843.75;;;-139.68;29.28
10940;BME280;5522;42.696;23.494;2023-04-28T12:31:03;53847.78;;;-139.68;27.62
10940;BME280;5522;42.696;23.494;2023-04-28T12:33:30;53853.81;;;-139.68;28.61
10940;BME280;5522;42.696;23.494;2023-04-28T12:35:59;53841.75;;;-139.68;28.20
10940;BME280;5522;42.696;23.494;2023-04-28T12:38:26;53841.75;;;-139.68;29.96
10940;BME280;5522;42.696;23.494;2023-04-28T12:40:53;53827.69;;;-139.68;31.11
10940;BME280;5522;42.696;23.494;2023-04-28T12:43:21;53827.69;;;-139.68;31.43
10940;BME280;5522;42.696;23.494;2023-04-28T12:45:48;53825.66;;;-139.68;30.35
10940;BME280;5522;42.696;23.494;2023-04-28T12:48:15;53861.84;;;-139.68;30.64
10940;BME280;5522;42.696;23.494;2023-04-28T12:50:42;53861.84;;;-139.68;29.32
10940;BME280;5522;42.696;23.494;2023-04-28T12:53:10;53825.66;;;-139.68;30.43